Time;durP1;ratioP1;P1;durP2;ratioP2;P2;SDS_P1;SDS_P2;PMS_P1;PMS_P2;Temp;Humidity;BMP_temperature;BMP_pressure;BME280_temperature;BME280_humidity;BME280_pressure;Samples;Min_cycle;Max_cycle;Signal;HPM_P1;HPM_P2
2023/06/19 00:00:15;;;;;;;8.20;7.40;;;19.60;97.50;;;;;;5001964;28;20128;-66
2023/06/19 00:02:43;;;;;;;7.93;7.13;;;19.70;97.60;;;;;;5019349;28;20036;-68
2023/06/19 00:05:10;;;;;;;7.97;7.18;;;19.70;97.60;;;;;;5022041;28;20132;-66
2023/06/19 00:07:39;;;;;;;9.02;8.10;;;19.70;97.50;;;;;;5024817;28;20505;-67
2023/06/19 00:10:06;;;;;;;8.55;7.70;;;19.80;97.40;;;;;;5025022;28;20037;-67
2023/06/19 00:12:32;;;;;;;8.38;7.57;;;19.80;97.40;;;;;;5024614;28;20048;-67
2023/06/19 00:14:58;;;;;;;9.43;7.65;;;19.80;97.30;;;;;;5024134;28;20037;-67
2023/06/19 00:17:25;;;;;;;8.25;7.43;;;19.90;97.30;;;;;;5025377;28;20052;-67
2023/06/19 00:19:51;;;;;;;8.43;7.63;;;19.90;97.20;;;;;;5025055;28;20042;-66
2023/06/19 00:22:17;;;;;;;8.57;7.68;;;19.90;97.20;;;;;;5024529;28;20041;-67
2023/06/19 00:24:43;;;;;;;9.00;7.30;;;19.90;97.20;;;;;;5024717;28;20036;-67
2023/06/19 00:27:09;;;;;;;9.18;8.27;;;19.90;97.20;;;;;;5024604;28;20033;-67
2023/06/19 00:29:34;;;;;;;9.00;8.20;;;19.90;97.30;;;;;;5002511;28;20025;-67
2023/06/19 00:32:00;;;;;;;8.93;8.05;;;19.90;97.20;;;;;;5026978;28;20644;-67
2023/06/19 00:34:28;;;;;;;8.27;7.47;;;19.90;97.20;;;;;;5024289;28;20037;-67
2023/06/19 00:36:56;;;;;;;9.35;8.18;;;19.90;97.20;;;;;;5022683;28;20045;-66
2023/06/19 00:39:25;;;;;;;9.80;8.20;;;19.90;97.20;;;;;;5023822;28;20044;-66
2023/06/19 00:41:56;;;;;;;9.38;7.88;;;19.90;97.30;;;;;;5006212;28;20033;-67
2023/06/19 00:44:22;;;;;;;9.20;8.18;;;19.90;97.30;;;;;;5021005;28;20483;-66
2023/06/19 00:46:55;;;;;;;8.02;7.32;;;19.80;97.20;;;;;;5022786;28;20439;-67
2023/06/19 00:49:21;;;;;;;9.18;8.27;;;19.70;97.20;;;;;;4998826;28;20029;-67
2023/06/19 00:51:47;;;;;;;9.65;8.45;;;19.70;97.30;;;;;;5022597;28;20048;-67
2023/06/19 00:54:15;;;;;;;9.05;8.05;;;19.70;97.40;;;;;;5005466;28;20029;-67
2023/06/19 00:56:41;;;;;;;8.63;7.82;;;19.60;97.40;;;;;;4991832;28;20021;-67
2023/06/19 00:59:19;;;;;;;9.15;8.25;;;19.60;97.40;;;;;;5023381;28;20571;-67
2023/06/19 01:01:45;;;;;;;9.70;7.97;;;19.60;97.70;;;;;;5002984;28;20837;-66
2023/06/19 01:04:12;;;;;;;8.82;7.93;;;19.50;97.80;;;;;;5002049;28;20033;-67
2023/06/19 01:06:52;;;;;;;8.85;7.95;;;19.50;97.90;;;;;;5000671;28;20448;-67
2023/06/19 01:09:20;;;;;;;8.52;7.72;;;19.40;98.10;;;;;;5005187;28;20040;-67
2023/06/19 01:11:58;;;;;;;9.45;8.35;;;19.40;98.10;;;;;;5023200;28;20949;-67
2023/06/19 01:14:44;;;;;;;10.02;9.02;;;19.30;98.10;;;;;;5004593;28;20091;-67
2023/06/19 01:17:10;;;;;;;9.73;8.27;;;19.30;98.10;;;;;;5005338;28;20679;-66
2023/06/19 01:19:36;;;;;;;8.85;7.78;;;19.30;98.20;;;;;;5023353;28;20033;-66
2023/06/19 01:22:04;;;;;;;9.15;8.25;;;19.30;98.20;;;;;;5005663;28;20382;-67
2023/06/19 01:24:30;;;;;;;9.88;8.55;;;19.30;98.30;;;;;;5022973;28;20773;-66
2023/06/19 01:26:56;;;;;;;8.82;7.93;;;19.30;98.30;;;;;;5022335;28;20028;-66
2023/06/19 01:29:21;;;;;;;9.30;8.23;;;19.40;98.30;;;;;;5003782;28;20041;-66
2023/06/19 01:32:04;;;;;;;8.50;7.70;;;19.40;98.20;;;;;;5021271;28;20029;-67
2023/06/19 01:34:31;;;;;;;9.68;8.60;;;19.30;98.20;;;;;;5022379;28;20026;-67
2023/06/19 01:36:58;;;;;;;8.93;8.05;;;19.40;98.20;;;;;;5019898;28;20038;-67
2023/06/19 01:39:25;;;;;;;10.15;8.48;;;19.40;98.20;;;;;;5004812;28;20808;-66
2023/06/19 01:41:52;;;;;;;9.13;8.20;;;19.40;98.40;;;;;;5005253;28;20739;-67
2023/06/19 01:44:18;;;;;;;10.80;8.93;;;19.40;98.50;;;;;;5004610;28;20029;-67
2023/06/19 01:46:49;;;;;;;8.63;7.82;;;19.40;98.60;;;;;;5021937;28;20829;-67
2023/06/19 01:49:14;;;;;;;8.98;8.07;;;19.40;98.60;;;;;;5021767;28;20135;-67
2023/06/19 01:51:40;;;;;;;8.98;8.07;;;19.40;98.70;;;;;;5022561;28;20021;-67
2023/06/19 01:54:06;;;;;;;7.95;7.13;;;19.40;98.60;;;;;;5019508;28;20116;-67
2023/06/19 01:56:32;;;;;;;9.27;8.35;;;19.40;98.50;;;;;;5018623;28;20065;-67
2023/06/19 01:58:59;;;;;;;9.25;8.35;;;19.40;98.30;;;;;;5004129;28;20030;-67
2023/06/19 02:01:25;;;;;;;8.90;8.07;;;19.40;98.30;;;;;;5003613;28;20820;-67
2023/06/19 02:03:51;;;;;;;10.25;8.50;;;19.40;98.20;;;;;;5022252;28;20030;-67
2023/06/19 02:06:16;;;;;;;9.05;8.15;;;19.40;98.30;;;;;;5002788;28;20033;-68
2023/06/19 02:08:42;;;;;;;8.85;7.95;;;19.40;98.30;;;;;;5021150;28;20120;-67
2023/06/19 02:11:10;;;;;;;9.82;8.80;;;19.40;98.30;;;;;;5017818;28;20599;-67
2023/06/19 02:13:36;;;;;;;9.50;8.18;;;19.30;98.10;;;;;;5003808;28;20128;-67
2023/06/19 02:16:02;;;;;;;9.35;8.45;;;19.30;98.30;;;;;;5001161;28;20057;-67
2023/06/19 02:18:28;;;;;;;10.18;8.70;;;19.30;98.30;;;;;;5003456;28;20033;-66
2023/06/19 02:20:53;;;;;;;8.95;8.05;;;19.30;98.40;;;;;;5004220;28;20112;-67
2023/06/19 02:23:21;;;;;;;9.60;8.60;;;19.30;98.40;;;;;;5020813;28;20719;-67
2023/06/19 02:25:47;;;;;;;8.40;7.60;;;19.30;98.30;;;;;;5003872;28;20021;-67
2023/06/19 02:28:12;;;;;;;10.45;8.77;;;19.30;98.30;;;;;;5022545;28;20544;-67
2023/06/19 02:30:38;;;;;;;8.90;8.00;;;19.30;98.30;;;;;;5000769;28;20481;-67
2023/06/19 02:33:04;;;;;;;10.48;8.80;;;19.30;98.50;;;;;;4999835;28;20596;-67
2023/06/19 02:35:30;;;;;;;9.52;8.63;;;19.30;98.60;;;;;;5003544;28;20083;-67
2023/06/19 02:37:56;;;;;;;9.25;8.35;;;19.40;98.60;;;;;;5002606;28;20318;-67
2023/06/19 02:40:22;;;;;;;9.05;8.15;;;19.30;98.60;;;;;;5020154;28;20485;-67
2023/06/19 02:42:48;;;;;;;9.77;8.18;;;19.30;98.50;;;;;;4999465;28;20021;-67
2023/06/19 02:45:13;;;;;;;8.75;7.90;;;19.30;98.40;;;;;;5005895;28;20044;-67
2023/06/19 02:47:40;;;;;;;8.85;7.72;;;19.40;98.30;;;;;;5021271;28;20032;-67
2023/06/19 02:50:06;;;;;;;8.60;7.80;;;19.30;98.20;;;;;;5003923;28;20034;-66
2023/06/19 02:52:32;;;;;;;10.05;9.05;;;19.40;98.40;;;;;;5018053;28;20025;-66
2023/06/19 02:54:59;;;;;;;9.82;8.82;;;19.40;98.20;;;;;;5022122;28;20048;-67
2023/06/19 02:57:25;;;;;;;10.88;9.30;;;19.40;98.40;;;;;;4994994;28;20509;-67
2023/06/19 02:59:50;;;;;;;9.23;8.35;;;19.40;98.50;;;;;;5003512;28;20188;-66
2023/06/19 03:02:16;;;;;;;9.82;8.77;;;19.50;98.60;;;;;;5003414;28;20130;-67
2023/06/19 03:04:44;;;;;;;9.35;8.35;;;19.50;98.50;;;;;;5021621;28;20133;-67
2023/06/19 03:07:09;;;;;;;9.85;8.20;;;19.40;98.40;;;;;;5003442;28;20033;-67
2023/06/19 03:09:36;;;;;;;9.48;8.55;;;19.50;98.60;;;;;;5002494;28;20041;-67
2023/06/19 03:12:02;;;;;;;9.73;8.82;;;19.50;98.60;;;;;;4991272;28;20103;-66
2023/06/19 03:14:29;;;;;;;9.52;8.63;;;19.50;98.60;;;;;;5002393;28;20080;-67
2023/06/19 03:16:54;;;;;;;8.52;7.72;;;19.50;98.70;;;;;;5002138;28;20037;-67
2023/06/19 03:19:21;;;;;;;10.05;9.05;;;19.60;98.70;;;;;;5001365;28;20073;-67
2023/06/19 03:21:47;;;;;;;10.00;9.00;;;19.60;98.60;;;;;;4998166;28;20028;-67
2023/06/19 03:24:13;;;;;;;9.43;8.55;;;19.60;98.50;;;;;;4996648;28;20489;-67
2023/06/19 03:26:39;;;;;;;10.13;9.13;;;19.60;99.00;;;;;;5020415;28;20032;-67
2023/06/19 03:29:06;;;;;;;10.25;9.23;;;19.60;98.80;;;;;;4999311;28;20106;-67
2023/06/19 03:31:57;;;;;;;10.32;9.32;;;19.60;99.00;;;;;;5017881;28;20030;-67
2023/06/19 03:34:28;;;;;;;11.50;10.30;;;19.60;98.90;;;;;;5000111;28;20417;-67
2023/06/19 03:36:54;;;;;;;10.43;9.43;;;19.60;99.00;;;;;;5002769;28;20030;-67
2023/06/19 03:39:21;;;;;;;10.32;8.95;;;19.60;98.80;;;;;;5000875;28;20120;-67
2023/06/19 03:41:47;;;;;;;11.15;10.05;;;19.60;98.90;;;;;;5003487;28;20055;-67
2023/06/19 03:44:13;;;;;;;10.65;9.55;;;19.60;98.90;;;;;;5000689;28;20498;-67
2023/06/19 03:46:39;;;;;;;11.25;10.07;;;19.60;98.90;;;;;;5003971;28;20120;-66
2023/06/19 03:49:06;;;;;;;12.95;9.77;;;19.60;98.80;;;;;;5001147;28;20144;-67
2023/06/19 03:51:32;;;;;;;11.60;9.55;;;19.60;98.60;;;;;;5021265;28;20025;-66
2023/06/19 03:53:58;;;;;;;11.70;10.50;;;19.60;98.60;;;;;;5018850;28;20043;-67
2023/06/19 03:56:24;;;;;;;12.65;11.35;;;19.60;98.30;;;;;;5014953;28;20113;-67
2023/06/19 03:58:51;;;;;;;11.73;10.52;;;19.60;97.90;;;;;;5020334;28;20037;-67
2023/06/19 04:01:16;;;;;;;12.13;10.93;;;19.60;97.90;;;;;;4999298;28;20138;-66
2023/06/19 04:03:42;;;;;;;11.77;10.52;;;19.60;98.20;;;;;;5020411;28;20446;-67
2023/06/19 04:06:08;;;;;;;12.75;11.00;;;19.60;98.20;;;;;;5003079;28;20030;-67
2023/06/19 04:08:38;;;;;;;12.93;11.52;;;19.70;98.00;;;;;;5001605;28;20053;-67
2023/06/19 04:11:04;;;;;;;11.95;10.73;;;19.80;97.50;;;;;;5001150;28;20111;-66
2023/06/19 04:13:30;;;;;;;11.70;10.50;;;19.70;97.60;;;;;;5002901;28;20103;-67
2023/06/19 04:15:55;;;;;;;12.25;11.05;;;19.80;97.80;;;;;;5016779;28;20042;-67
2023/06/19 04:18:21;;;;;;;13.35;10.45;;;19.80;97.70;;;;;;5000292;28;20033;-66
2023/06/19 04:20:47;;;;;;;11.95;9.60;;;19.80;97.90;;;;;;5001437;28;20103;-67
2023/06/19 04:23:13;;;;;;;12.52;10.50;;;19.90;97.90;;;;;;5016896;28;20044;-67
2023/06/19 04:25:39;;;;;;;11.90;10.70;;;19.80;97.60;;;;;;5003157;28;20075;-67
2023/06/19 04:28:04;;;;;;;12.20;10.63;;;19.90;97.70;;;;;;5020048;28;20397;-67
2023/06/19 04:30:30;;;;;;;11.55;10.45;;;19.90;97.80;;;;;;5018290;28;20041;-67
2023/06/19 04:33:00;;;;;;;11.20;9.98;;;19.90;97.90;;;;;;5002421;28;20053;-67
2023/06/19 04:35:26;;;;;;;11.65;10.50;;;19.90;98.10;;;;;;5020468;28;20029;-67
2023/06/19 04:37:53;;;;;;;12.05;10.85;;;19.90;98.20;;;;;;5019868;28;20520;-66
2023/06/19 04:40:19;;;;;;;11.93;10.38;;;19.90;98.20;;;;;;5019174;28;20429;-67
2023/06/19 04:42:44;;;;;;;11.05;9.95;;;20.00;98.40;;;;;;5019519;28;20083;-67
2023/06/19 04:45:10;;;;;;;10.93;9.82;;;20.00;98.30;;;;;;5017591;28;20421;-67
2023/06/19 04:47:37;;;;;;;10.88;9.82;;;20.00;98.40;;;;;;5012812;28;20114;-67
2023/06/19 04:50:03;;;;;;;11.30;10.20;;;20.00;98.60;;;;;;5017470;28;20040;-67
2023/06/19 04:52:30;;;;;;;11.30;10.10;;;20.00;98.70;;;;;;5020058;28;20036;-67
2023/06/19 04:54:56;;;;;;;12.10;10.77;;;20.00;98.90;;;;;;5024256;28;20140;-67
2023/06/19 04:57:21;;;;;;;10.68;9.68;;;20.00;99.10;;;;;;5023640;28;20120;-66
2023/06/19 04:59:47;;;;;;;10.98;9.90;;;20.10;99.10;;;;;;5022392;28;20080;-67
2023/06/19 05:02:13;;;;;;;11.38;10.27;;;20.00;99.00;;;;;;5023865;28;20056;-67
2023/06/19 05:04:42;;;;;;;12.25;10.98;;;20.10;98.70;;;;;;5004044;28;20025;-66
2023/06/19 05:07:10;;;;;;;11.57;10.48;;;20.10;98.50;;;;;;5023868;28;20033;-67
2023/06/19 05:09:36;;;;;;;12.05;10.75;;;20.10;98.50;;;;;;5016836;28;20657;-67
2023/06/19 05:12:01;;;;;;;10.93;9.82;;;20.10;98.70;;;;;;5020486;28;20040;-67
2023/06/19 05:14:27;;;;;;;11.63;10.45;;;20.10;98.50;;;;;;5023230;28;20481;-68
2023/06/19 05:16:53;;;;;;;12.35;11.13;;;20.10;98.30;;;;;;5024127;28;20056;-67
2023/06/19 05:19:19;;;;;;;11.25;10.15;;;20.20;97.70;;;;;;5022863;28;20136;-67
2023/06/19 05:21:45;;;;;;;10.90;9.82;;;20.10;97.50;;;;;;5021843;28;20026;-67
2023/06/19 05:24:10;;;;;;;11.95;10.68;;;20.10;97.50;;;;;;5020743;28;20852;-67
2023/06/19 05:26:36;;;;;;;12.65;10.55;;;20.20;97.30;;;;;;5023038;28;20497;-67
2023/06/19 05:29:02;;;;;;;13.48;10.73;;;20.20;97.20;;;;;;5022823;28;20947;-67
2023/06/19 05:31:27;;;;;;;14.00;11.20;;;20.20;97.00;;;;;;5022833;28;20482;-67
2023/06/19 05:33:53;;;;;;;11.35;10.18;;;20.30;96.80;;;;;;5023180;28;20034;-66
2023/06/19 05:36:19;;;;;;;11.60;10.48;;;20.30;96.70;;;;;;5022927;28;20033;-67
2023/06/19 05:38:45;;;;;;;11.13;9.95;;;20.40;96.80;;;;;;5021152;28;20828;-67
2023/06/19 05:41:11;;;;;;;11.30;10.20;;;20.50;96.90;;;;;;5020621;28;20484;-67
2023/06/19 05:43:38;;;;;;;11.40;10.15;;;20.50;96.90;;;;;;5020741;28;20025;-67
2023/06/19 05:46:03;;;;;;;11.50;10.30;;;20.60;96.40;;;;;;5019944;28;20893;-67
2023/06/19 05:48:29;;;;;;;11.05;9.93;;;20.70;96.50;;;;;;5023328;28;20021;-67
2023/06/19 05:50:55;;;;;;;11.25;10.18;;;20.70;96.40;;;;;;5022893;28;20405;-67
2023/06/19 05:53:21;;;;;;;10.75;9.65;;;20.70;96.30;;;;;;5022552;28;20599;-67
2023/06/19 05:55:46;;;;;;;11.18;10.00;;;20.80;96.30;;;;;;5022818;28;20040;-67
2023/06/19 05:58:12;;;;;;;10.20;9.20;;;20.80;96.40;;;;;;5021885;28;20029;-67
2023/06/19 06:00:38;;;;;;;11.68;10.32;;;20.90;96.60;;;;;;5022119;28;20044;-67
2023/06/19 06:03:04;;;;;;;12.73;10.48;;;20.90;95.80;;;;;;5021338;28;20026;-67
2023/06/19 06:05:29;;;;;;;12.82;9.90;;;20.90;95.70;;;;;;5021760;28;20029;-67
2023/06/19 06:07:55;;;;;;;11.43;10.32;;;21.00;96.00;;;;;;5021826;28;20464;-67
2023/06/19 06:10:23;;;;;;;10.98;9.88;;;21.10;96.10;;;;;;5021874;28;20049;-67
2023/06/19 06:12:49;;;;;;;11.68;9.93;;;21.20;96.00;;;;;;5021400;28;20033;-67
2023/06/19 06:15:15;;;;;;;10.70;9.60;;;21.20;95.70;;;;;;5018524;28;20044;-67
2023/06/19 06:17:41;;;;;;;11.80;9.38;;;21.30;95.10;;;;;;5019342;28;20559;-68
2023/06/19 06:20:11;;;;;;;10.75;9.57;;;21.30;95.00;;;;;;5021809;28;20419;-67
2023/06/19 06:22:37;;;;;;;11.20;10.00;;;21.40;95.10;;;;;;5014401;28;20025;-67
2023/06/19 06:25:04;;;;;;;11.23;10.05;;;21.40;94.90;;;;;;5021256;28;20124;-68
2023/06/19 06:27:30;;;;;;;12.85;10.10;;;21.40;94.60;;;;;;5021532;28;20497;-68
2023/06/19 06:29:56;;;;;;;14.27;10.93;;;21.50;94.50;;;;;;5021843;28;20035;-68
2023/06/19 06:32:21;;;;;;;12.85;10.00;;;21.50;94.10;;;;;;5022048;28;20120;-68
2023/06/19 06:34:47;;;;;;;14.27;10.38;;;21.50;94.50;;;;;;5022699;28;20030;-68
2023/06/19 06:37:13;;;;;;;13.55;10.73;;;21.60;94.80;;;;;;5018438;28;20034;-68
2023/06/19 06:39:39;;;;;;;11.88;10.70;;;21.70;94.50;;;;;;5003958;28;20026;-68
2023/06/19 06:42:05;;;;;;;11.02;9.93;;;21.70;94.30;;;;;;5022294;28;20495;-67
2023/06/19 06:44:30;;;;;;;13.02;10.32;;;21.80;94.40;;;;;;5020961;28;20820;-68
2023/06/19 06:46:56;;;;;;;11.57;10.38;;;21.80;94.10;;;;;;5021324;28;20033;-68
2023/06/19 06:49:22;;;;;;;12.32;11.05;;;21.80;94.20;;;;;;5003132;28;20029;-68
2023/06/19 06:51:48;;;;;;;12.15;10.10;;;21.80;94.30;;;;;;5022078;28;20025;-68
2023/06/19 06:54:14;;;;;;;10.00;9.00;;;21.90;94.40;;;;;;5022161;28;20733;-68
2023/06/19 06:56:40;;;;;;;10.77;9.60;;;21.90;94.40;;;;;;5015519;28;20021;-69
2023/06/19 06:59:06;;;;;;;11.18;10.07;;;21.90;94.60;;;;;;5021540;28;20022;-67
2023/06/19 07:01:31;;;;;;;10.80;9.73;;;22.00;94.50;;;;;;5021019;28;20861;-67
2023/06/19 07:03:57;;;;;;;10.98;9.75;;;22.10;94.40;;;;;;5021071;28;20025;-67
2023/06/19 07:06:23;;;;;;;10.85;9.65;;;22.20;94.70;;;;;;5019992;28;20042;-67
2023/06/19 07:08:49;;;;;;;10.52;9.43;;;22.20;95.00;;;;;;5021043;28;20033;-67
2023/06/19 07:11:14;;;;;;;11.07;9.98;;;22.30;95.70;;;;;;5021024;28;20095;-67
2023/06/19 07:13:41;;;;;;;10.30;9.30;;;22.40;95.50;;;;;;5020757;28;20052;-68
2023/06/19 07:16:07;;;;;;;11.27;9.73;;;22.40;95.00;;;;;;5017892;28;20041;-67
2023/06/19 07:18:35;;;;;;;10.52;9.45;;;22.40;94.80;;;;;;5002415;28;20140;-67
2023/06/19 07:21:03;;;;;;;11.02;9.38;;;22.40;94.80;;;;;;5021257;28;20480;-68
2023/06/19 07:23:29;;;;;;;10.32;9.30;;;22.40;94.40;;;;;;5020830;28;20113;-67
2023/06/19 07:25:55;;;;;;;10.00;8.98;;;22.40;94.60;;;;;;5021637;28;20523;-68
2023/06/19 07:28:20;;;;;;;11.80;9.55;;;22.40;94.70;;;;;;5021337;28;20581;-69
2023/06/19 07:30:47;;;;;;;11.93;9.02;;;22.50;94.60;;;;;;5021488;28;20501;-69
2023/06/19 07:33:13;;;;;;;11.57;10.10;;;22.50;94.60;;;;;;5018946;28;20045;-68
2023/06/19 07:35:39;;;;;;;13.80;10.52;;;22.70;94.40;;;;;;5018278;28;20388;-68
2023/06/19 07:38:05;;;;;;;11.00;9.90;;;22.80;92.90;;;;;;5021106;28;20044;-69
2023/06/19 07:40:31;;;;;;;10.40;9.27;;;22.80;92.60;;;;;;5006239;28;20523;-69
2023/06/19 07:42:57;;;;;;;9.75;8.73;;;22.90;92.80;;;;;;5020491;28;20095;-70
2023/06/19 07:45:23;;;;;;;10.85;9.75;;;22.90;92.70;;;;;;5014756;28;20029;-68
2023/06/19 07:47:55;;;;;;;11.20;10.00;;;23.00;93.00;;;;;;5017386;28;20033;-67
2023/06/19 07:50:21;;;;;;;11.18;10.00;;;23.00;93.20;;;;;;5016791;28;20033;-70
2023/06/19 07:52:47;;;;;;;11.23;9.80;;;23.10;92.90;;;;;;5016592;28;20574;-68
2023/06/19 07:55:13;;;;;;;11.75;10.63;;;23.10;92.30;;;;;;5019703;28;20033;-70
2023/06/19 07:57:39;;;;;;;10.05;9.05;;;23.10;92.20;;;;;;5020185;28;20060;-69
2023/06/19 08:00:10;;;;;;;12.38;10.93;;;23.10;92.40;;;;;;5017400;28;20561;-69
2023/06/19 08:02:37;;;;;;;10.35;9.15;;;23.10;92.10;;;;;;5012903;28;20026;-70
2023/06/19 08:05:03;;;;;;;10.50;9.50;;;23.10;92.00;;;;;;5018444;28;20033;-69
2023/06/19 08:07:29;;;;;;;10.57;9.57;;;23.10;92.80;;;;;;5016293;28;20176;-69
2023/06/19 08:09:55;;;;;;;12.23;11.02;;;23.10;92.70;;;;;;5020493;28;20037;-69
2023/06/19 08:12:21;;;;;;;11.75;10.38;;;23.20;92.20;;;;;;5020943;28;20041;-69
2023/06/19 08:14:46;;;;;;;10.98;9.88;;;23.20;92.10;;;;;;5021245;28;20029;-69
2023/06/19 08:17:12;;;;;;;12.90;9.70;;;23.20;92.80;;;;;;5019483;28;20101;-69
2023/06/19 08:19:39;;;;;;;14.35;11.50;;;23.20;93.00;;;;;;5020673;28;20585;-69
2023/06/19 08:22:05;;;;;;;11.93;10.73;;;23.30;92.30;;;;;;5020900;28;20036;-68
2023/06/19 08:24:31;;;;;;;11.18;10.13;;;23.30;92.10;;;;;;5017520;28;20076;-67
2023/06/19 08:26:57;;;;;;;11.30;10.20;;;23.20;92.00;;;;;;5005173;28;20033;-69
2023/06/19 08:29:23;;;;;;;11.27;10.18;;;23.20;93.00;;;;;;5024044;28;20079;-69
2023/06/19 08:31:49;;;;;;;10.32;9.32;;;23.30;93.00;;;;;;5023421;28;20140;-69
2023/06/19 08:34:14;;;;;;;11.20;10.10;;;23.40;93.70;;;;;;5023453;28;20148;-69
2023/06/19 08:36:40;;;;;;;11.57;10.38;;;23.40;94.20;;;;;;5022603;28;20033;-69
2023/06/19 08:39:08;;;;;;;13.25;11.88;;;23.40;94.30;;;;;;5022257;28;20085;-69
2023/06/19 08:41:37;;;;;;;15.43;12.27;;;23.50;92.90;;;;;;5021236;28;20492;-69
2023/06/19 08:44:04;;;;;;;19.65;12.07;;;23.50;92.70;;;;;;5024916;28;20481;-68
2023/06/19 08:46:29;;;;;;;12.45;11.15;;;23.70;92.90;;;;;;5020227;28;20033;-68
2023/06/19 08:48:56;;;;;;;13.18;11.80;;;23.80;92.90;;;;;;5023708;28;20029;-67
2023/06/19 08:51:21;;;;;;;13.75;12.45;;;23.90;92.80;;;;;;5022850;28;20259;-67
2023/06/19 08:53:55;;;;;;;13.35;11.98;;;24.00;92.10;;;;;;5024440;28;20033;-67
2023/06/19 08:56:21;;;;;;;14.52;11.38;;;24.10;92.40;;;;;;5023072;28;20041;-68
2023/06/19 08:58:47;;;;;;;16.48;13.55;;;24.20;92.50;;;;;;5023867;28;20059;-68
2023/06/19 09:01:18;;;;;;;13.43;12.00;;;24.20;92.10;;;;;;4996863;28;20076;-68
2023/06/19 09:03:46;;;;;;;13.98;12.57;;;24.20;92.30;;;;;;5022332;28;20432;-68
2023/06/19 09:06:16;;;;;;;14.15;12.75;;;24.20;92.40;;;;;;5020185;28;20040;-68
2023/06/19 09:08:41;;;;;;;12.18;10.88;;;24.20;91.70;;;;;;5023224;28;20536;-68
2023/06/19 09:11:07;;;;;;;12.18;10.88;;;24.10;91.90;;;;;;5023754;28;20118;-68
2023/06/19 09:13:33;;;;;;;13.52;12.13;;;24.20;92.20;;;;;;5023475;28;20029;-68
2023/06/19 09:16:03;;;;;;;12.80;11.50;;;24.30;92.10;;;;;;5005368;28;20041;-64
2023/06/19 09:18:31;;;;;;;13.52;11.13;;;24.40;92.00;;;;;;5021664;28;20489;-67
2023/06/19 09:20:57;;;;;;;13.00;11.70;;;24.40;92.20;;;;;;5014090;28;20041;-66
2023/06/19 09:23:24;;;;;;;13.52;12.13;;;24.60;91.80;;;;;;5017651;28;20033;-65
2023/06/19 09:25:55;;;;;;;12.35;11.20;;;24.60;90.90;;;;;;5004922;28;20086;-66
2023/06/19 09:28:27;;;;;;;12.27;11.07;;;24.70;90.70;;;;;;5023054;28;20119;-67
2023/06/19 09:30:57;;;;;;;13.98;12.52;;;24.80;90.90;;;;;;5018795;28;20037;-65
2023/06/19 09:33:28;;;;;;;12.80;11.50;;;24.90;90.20;;;;;;5021960;28;20096;-65
2023/06/19 09:35:55;;;;;;;12.82;11.52;;;24.80;88.80;;;;;;5023592;28;20068;-65
2023/06/19 09:38:26;;;;;;;13.48;11.80;;;24.70;88.70;;;;;;5021668;28;20036;-66
2023/06/19 09:40:53;;;;;;;15.05;12.18;;;24.70;90.30;;;;;;5022889;28;20485;-65
2023/06/19 09:43:24;;;;;;;12.82;11.63;;;24.70;89.80;;;;;;5020744;28;20083;-67
2023/06/19 09:45:51;;;;;;;12.90;11.68;;;24.60;90.10;;;;;;5021841;28;20057;-67
2023/06/19 09:48:22;;;;;;;12.07;10.88;;;24.50;90.80;;;;;;5021605;28;20037;-67
2023/06/19 09:50:54;;;;;;;14.02;12.63;;;24.50;91.20;;;;;;5004473;28;20873;-66
2023/06/19 09:53:20;;;;;;;12.95;11.65;;;24.60;91.20;;;;;;5019265;28;20095;-67
2023/06/19 09:55:52;;;;;;;13.02;11.73;;;24.60;91.10;;;;;;5018987;28;20508;-67
2023/06/19 09:58:22;;;;;;;13.40;12.10;;;24.50;91.70;;;;;;5022307;28;20065;-66
2023/06/19 10:00:50;;;;;;;13.10;11.82;;;24.60;91.10;;;;;;5022249;28;20069;-66
2023/06/19 10:03:16;;;;;;;14.65;12.60;;;24.60;91.40;;;;;;5022975;28;20033;-67
2023/06/19 10:05:43;;;;;;;13.25;11.95;;;24.60;91.30;;;;;;5023242;28;20036;-66
2023/06/19 10:08:09;;;;;;;12.98;11.68;;;24.70;91.20;;;;;;5019300;28;20037;-67
2023/06/19 10:10:36;;;;;;;14.13;12.73;;;24.70;91.10;;;;;;5019894;28;20036;-67
2023/06/19 10:13:14;;;;;;;15.60;12.80;;;24.80;90.70;;;;;;5015809;28;20128;-68
2023/06/19 10:15:44;;;;;;;14.82;13.25;;;24.90;90.30;;;;;;5018523;28;20029;-67
2023/06/19 10:18:18;;;;;;;14.85;13.30;;;25.10;90.40;;;;;;5020995;28;20044;-67
2023/06/19 10:20:46;;;;;;;16.05;13.45;;;25.10;90.00;;;;;;5021198;28;20098;-67
2023/06/19 10:23:20;;;;;;;14.70;13.20;;;25.10;90.10;;;;;;5016467;28;20025;-66
2023/06/19 10:25:48;;;;;;;13.75;12.45;;;25.20;89.20;;;;;;5020837;28;20872;-67
2023/06/19 10:28:19;;;;;;;14.38;12.98;;;25.30;88.50;;;;;;5019766;28;20837;-66
2023/06/19 10:30:51;;;;;;;16.52;12.57;;;25.30;87.60;;;;;;5017935;28;20033;-68
2023/06/19 10:33:17;;;;;;;14.90;13.30;;;25.30;87.90;;;;;;5018177;28;20053;-67
2023/06/19 10:35:42;;;;;;;16.45;13.02;;;25.30;88.10;;;;;;5022414;28;20029;-67
2023/06/19 10:38:09;;;;;;;15.55;13.35;;;25.40;87.00;;;;;;5019601;28;20099;-68
2023/06/19 10:40:37;;;;;;;14.07;12.23;;;25.30;87.60;;;;;;5016908;28;20029;-67
2023/06/19 10:43:04;;;;;;;20.13;16.73;;;25.40;86.70;;;;;;5018138;28;20025;-67
2023/06/19 10:45:30;;;;;;;13.80;12.40;;;25.40;86.00;;;;;;5015760;28;20060;-68
2023/06/19 10:47:56;;;;;;;14.50;12.07;;;25.60;86.70;;;;;;5017497;28;20033;-67
2023/06/19 10:50:22;;;;;;;12.55;11.35;;;25.70;86.90;;;;;;5020461;28;20041;-68
2023/06/19 10:52:54;;;;;;;12.88;11.57;;;25.80;85.80;;;;;;5022135;28;20036;-67
2023/06/19 10:55:20;;;;;;;15.20;12.02;;;26.00;84.70;;;;;;5022039;28;20527;-67
2023/06/19 10:57:47;;;;;;;12.57;11.25;;;26.10;84.00;;;;;;5020566;28;20140;-67
2023/06/19 11:00:27;;;;;;;15.13;11.27;;;26.30;83.50;;;;;;5017761;28;20064;-67
2023/06/19 11:02:53;;;;;;;11.73;10.45;;;26.30;82.60;;;;;;5010164;28;20800;-68
2023/06/19 11:05:20;;;;;;;13.07;11.55;;;26.40;82.20;;;;;;5013444;28;20061;-67
2023/06/19 11:07:57;;;;;;;12.93;11.02;;;26.50;81.60;;;;;;5020463;28;20481;-66
2023/06/19 11:10:25;;;;;;;13.13;11.80;;;26.70;81.60;;;;;;5021244;28;20767;-68
2023/06/19 11:12:58;;;;;;;12.80;11.27;;;26.90;80.50;;;;;;5021232;28;20576;-68
2023/06/19 11:15:32;;;;;;;13.45;11.25;;;27.10;79.50;;;;;;5021925;28;20032;-67
2023/06/19 11:18:00;;;;;;;12.70;10.60;;;27.10;79.70;;;;;;5017249;28;20053;-68
2023/06/19 11:20:27;;;;;;;12.70;11.50;;;27.20;78.40;;;;;;5022767;28;20552;-68
2023/06/19 11:22:58;;;;;;;13.18;11.05;;;27.30;79.10;;;;;;5018997;28;20049;-66
2023/06/19 11:25:34;;;;;;;11.45;10.35;;;27.40;77.00;;;;;;5021887;28;20041;-68
2023/06/19 11:28:00;;;;;;;12.00;10.90;;;27.40;77.00;;;;;;5020838;28;20030;-67
2023/06/19 11:30:33;;;;;;;13.25;11.95;;;27.50;76.10;;;;;;5019373;28;20157;-68
2023/06/19 11:33:00;;;;;;;12.20;11.00;;;27.60;75.60;;;;;;4997963;28;20049;-68
2023/06/19 11:35:36;;;;;;;11.80;10.45;;;27.60;75.80;;;;;;5017003;28;20036;-67
2023/06/19 11:38:03;;;;;;;11.93;10.63;;;27.70;75.40;;;;;;4996194;28;20030;-68
2023/06/19 11:40:38;;;;;;;11.93;10.73;;;27.80;75.20;;;;;;5016931;28;20127;-66
2023/06/19 11:43:03;;;;;;;17.42;11.05;;;28.00;74.70;;;;;;5015418;28;20063;-67
2023/06/19 11:45:31;;;;;;;11.68;10.52;;;28.10;75.60;;;;;;5000866;28;20038;-67
2023/06/19 11:47:58;;;;;;;10.60;9.55;;;28.10;75.00;;;;;;5003976;28;20044;-68
2023/06/19 11:50:28;;;;;;;11.45;10.10;;;28.20;73.80;;;;;;5021623;28;20033;-68
2023/06/19 11:52:54;;;;;;;11.50;10.38;;;28.20;72.00;;;;;;5020080;28;20064;-67
2023/06/19 11:55:19;;;;;;;14.05;10.35;;;28.30;73.40;;;;;;5017656;28;20057;-68
2023/06/19 11:57:45;;;;;;;11.68;10.57;;;28.30;72.30;;;;;;5021797;28;20074;-67
2023/06/19 12:00:16;;;;;;;11.32;10.23;;;28.30;69.80;;;;;;5017624;28;20686;-68
2023/06/19 12:02:43;;;;;;;12.45;10.68;;;28.30;71.50;;;;;;5021028;28;20034;-69
2023/06/19 12:05:10;;;;;;;12.98;11.52;;;28.10;70.00;;;;;;5024334;28;20033;-68
2023/06/19 12:07:36;;;;;;;12.00;10.80;;;27.90;70.40;;;;;;5022653;28;20136;-67
2023/06/19 12:10:04;;;;;;;11.57;10.35;;;27.70;69.10;;;;;;5023960;28;20040;-68
2023/06/19 12:12:30;;;;;;;13.38;10.00;;;27.80;70.60;;;;;;5005373;28;20624;-66
2023/06/19 12:14:56;;;;;;;11.90;10.80;;;27.90;68.40;;;;;;5020514;28;20040;-68
2023/06/19 12:17:22;;;;;;;13.13;11.80;;;27.80;69.30;;;;;;5023267;28;20034;-67
2023/06/19 12:19:49;;;;;;;12.23;10.90;;;27.80;69.10;;;;;;5023479;28;20047;-68
2023/06/19 12:22:14;;;;;;;10.82;9.77;;;27.70;69.10;;;;;;5024100;28;20035;-66
2023/06/19 12:24:40;;;;;;;10.10;9.10;;;27.60;69.80;;;;;;5023334;28;20029;-67
2023/06/19 12:27:06;;;;;;;10.32;9.32;;;27.70;70.60;;;;;;5022560;28;20043;-66
2023/06/19 12:29:32;;;;;;;10.45;9.32;;;27.90;68.20;;;;;;5020194;28;20029;-67
2023/06/19 12:32:05;;;;;;;10.57;9.45;;;28.20;67.20;;;;;;5020783;28;20508;-68